Time;durP1;ratioP1;P1;durP2;ratioP2;P2;SDS_P1;SDS_P2;PMS_P1;PMS_P2;Temp;Humidity;BMP_temperature;BMP_pressure;BME280_temperature;BME280_humidity;BME280_pressure;Samples;Min_cycle;Max_cycle;Signal;HPM_P1;HPM_P2
2022/09/15 00:01:15;;;;;;;20.92;11.38;;;;;;;12.95;100.00;100410.72;4987445;28;20041;-74
2022/09/15 00:03:41;;;;;;;20.50;12.13;;;;;;;12.95;100.00;100418.53;4989246;28;20549;-76
2022/09/15 00:06:08;;;;;;;17.30;11.32;;;;;;;12.94;100.00;100419.53;4985045;28;20499;-73
2022/09/15 00:08:33;;;;;;;19.90;12.15;;;;;;;12.93;100.00;100417.91;4990359;28;20530;-74
2022/09/15 00:11:16;;;;;;;17.30;10.75;;;;;;;12.91;100.00;100422.47;4982102;28;20034;-74
2022/09/15 00:13:42;;;;;;;17.33;11.27;;;;;;;12.90;100.00;100418.25;4987593;28;20112;-74
2022/09/15 00:16:09;;;;;;;18.42;11.48;;;;;;;12.89;100.00;100424.47;4991020;28;20092;-75
2022/09/15 00:18:36;;;;;;;19.15;11.73;;;;;;;12.85;100.00;100415.41;4986009;28;20118;-73
2022/09/15 00:21:11;;;;;;;18.52;10.90;;;;;;;12.81;100.00;100414.16;4989707;28;20031;-73
2022/09/15 00:23:37;;;;;;;21.13;11.80;;;;;;;12.76;100.00;100412.06;5003095;28;20042;-74
2022/09/15 00:26:07;;;;;;;20.40;10.80;;;;;;;12.75;100.00;100417.44;4985374;28;20042;-74
2022/09/15 00:28:33;;;;;;;18.35;12.07;;;;;;;12.74;100.00;100406.25;4986390;28;20070;-74
2022/09/15 00:30:58;;;;;;;20.42;10.55;;;;;;;12.74;100.00;100410.66;4978556;28;20141;-74
2022/09/15 00:33:24;;;;;;;21.13;10.77;;;;;;;12.73;100.00;100420.22;4982481;28;20088;-74
2022/09/15 00:35:52;;;;;;;16.30;10.23;;;;;;;12.73;100.00;100414.22;4973048;28;20057;-74
2022/09/15 00:38:19;;;;;;;16.17;11.70;;;;;;;12.71;100.00;100411.00;4990575;28;20038;-73
2022/09/15 00:40:53;;;;;;;16.23;10.55;;;;;;;12.69;100.00;100412.97;4988532;28;20045;-76
2022/09/15 00:43:40;;;;;;;18.02;11.90;;;;;;;12.63;100.00;100417.91;4988719;28;20035;-76
2022/09/15 00:46:05;;;;;;;17.83;11.02;;;;;;;12.61;100.00;100413.88;4983757;28;20058;-74
2022/09/15 00:48:31;;;;;;;17.02;10.68;;;;;;;12.59;100.00;100414.03;4988297;28;20472;-76
2022/09/15 00:50:58;;;;;;;22.80;13.10;;;;;;;12.56;100.00;100413.59;4975571;28;20407;-75
2022/09/15 00:53:25;;;;;;;25.15;15.00;;;;;;;12.51;100.00;100414.13;4986275;28;20488;-74
2022/09/15 00:55:51;;;;;;;26.17;14.27;;;;;;;12.46;100.00;100422.44;4992732;28;20061;-73
2022/09/15 00:58:27;;;;;;;25.50;13.82;;;;;;;12.44;100.00;100408.03;4989748;28;20043;-73
2022/09/15 01:00:58;;;;;;;29.67;15.93;;;;;;;12.44;100.00;100410.63;4989253;28;20034;-76
2022/09/15 01:03:26;;;;;;;23.05;14.15;;;;;;;12.38;100.00;100396.53;4988786;28;20041;-74
2022/09/15 01:05:56;;;;;;;22.77;13.95;;;;;;;12.35;100.00;100406.47;4987255;28;20042;-74
2022/09/15 01:08:55;;;;;;;21.17;13.93;;;;;;;12.33;100.00;100400.66;4984260;28;20499;-74
2022/09/15 01:11:21;;;;;;;24.75;13.77;;;;;;;12.33;100.00;100398.84;4987923;28;20042;-73
2022/09/15 01:13:46;;;;;;;24.02;13.85;;;;;;;12.31;100.00;100395.63;4988322;28;20045;-73
2022/09/15 01:16:55;;;;;;;23.15;13.25;;;;;;;12.30;100.00;100398.41;4982127;28;20078;-75
2022/09/15 01:19:52;;;;;;;26.77;14.20;;;;;;;12.26;100.00;100390.16;4986848;28;20651;-74
2022/09/15 01:22:36;;;;;;;24.90;14.77;;;;;;;12.22;100.00;100407.09;4981849;28;20082;-73
2022/09/15 01:25:49;;;;;;;21.88;13.20;;;;;;;12.20;100.00;100406.44;4987619;28;20034;-75
2022/09/15 01:28:33;;;;;;;29.60;14.73;;;;;;;12.19;100.00;100405.66;4987679;28;20050;-74
2022/09/15 01:31:15;;;;;;;25.60;13.30;;;;;;;12.18;100.00;100406.63;4977706;28;20069;-74
2022/09/15 01:34:05;;;;;;;22.13;13.25;;;;;;;12.18;100.00;100409.22;4979486;28;20026;-77
2022/09/15 01:36:41;;;;;;;23.83;12.73;;;;;;;12.16;100.00;100403.41;4983309;28;20031;-74
2022/09/15 01:39:15;;;;;;;23.17;13.85;;;;;;;12.18;100.00;100413.63;4986229;28;20038;-74
2022/09/15 01:41:47;;;;;;;21.23;12.70;;;;;;;12.16;100.00;100408.59;4996915;28;20094;-74
2022/09/15 01:44:20;;;;;;;20.63;12.05;;;;;;;12.16;100.00;100402.59;4966542;28;20031;-74
2022/09/15 01:46:47;;;;;;;;;;;;;;;12.13;100.00;100397.75;4987736;28;20129;-74
2022/09/15 01:49:19;;;;;;;21.58;12.75;;;;;;;12.10;100.00;100403.31;4991933;28;19914;-74
2022/09/15 01:51:49;;;;;;;20.92;11.40;;;;;;;12.05;100.00;100402.03;4964477;28;20076;-75
2022/09/15 01:54:19;;;;;;;19.85;11.27;;;;;;;12.00;100.00;100398.34;4987512;28;20052;-73
2022/09/15 01:56:44;;;;;;;19.33;10.70;;;;;;;11.98;100.00;100395.94;4968548;28;20695;-74
2022/09/15 01:59:10;;;;;;;21.65;12.50;;;;;;;11.96;100.00;100402.25;4982332;28;20026;-77
2022/09/15 02:01:57;;;;;;;20.67;11.65;;;;;;;11.94;100.00;100399.84;4968616;28;20415;-75
2022/09/15 02:04:50;;;;;;;22.23;11.98;;;;;;;11.93;100.00;100410.41;4995493;28;20046;-74
2022/09/15 02:07:23;;;;;;;21.08;12.48;;;;;;;11.92;100.00;100411.38;4987558;28;20046;-73
2022/09/15 02:09:59;;;;;;;24.48;12.05;;;;;;;11.93;100.00;100410.41;4987680;28;20442;-73
2022/09/15 02:12:33;;;;;;;23.02;11.40;;;;;;;11.92;100.00;100408.78;4981146;28;20034;-73
2022/09/15 02:15:08;;;;;;;21.17;11.48;;;;;;;11.89;100.00;100412.53;4974111;28;20493;-73
2022/09/15 02:17:49;;;;;;;22.52;11.82;;;;;;;11.88;100.00;100414.31;4985300;28;20030;-74
2022/09/15 02:20:39;;;;;;;24.90;12.38;;;;;;;11.87;100.00;100406.69;4986188;28;20038;-74
2022/09/15 02:23:18;;;;;;;22.65;11.23;;;;;;;11.86;100.00;100416.25;4986522;28;20034;-74
2022/09/15 02:25:50;;;;;;;24.30;12.73;;;;;;;11.86;100.00;100418.84;4986246;28;20041;-74
2022/09/15 02:28:20;;;;;;;26.15;12.52;;;;;;;11.84;100.00;100410.44;4984932;28;20042;-73
2022/09/15 02:30:48;;;;;;;24.83;12.70;;;;;;;11.81;100.00;100412.56;4965757;28;20185;-73
2022/09/15 02:33:18;;;;;;;24.30;14.07;;;;;;;11.79;100.00;100410.16;4988108;28;20451;-73
2022/09/15 02:35:44;;;;;;;24.80;11.88;;;;;;;11.78;100.00;100412.94;4984721;28;20030;-77
2022/09/15 02:38:11;;;;;;;21.17;12.75;;;;;;;11.76;100.00;100407.91;4969734;28;20088;-74
2022/09/15 02:40:42;;;;;;;23.20;12.10;;;;;;;11.77;100.00;100412.13;4987257;28;20038;-74
2022/09/15 02:43:13;;;;;;;20.33;12.25;;;;;;;11.76;100.00;100405.31;4987368;28;20038;-73
2022/09/15 02:45:39;;;;;;;20.05;11.30;;;;;;;11.76;100.00;100404.50;4986729;28;20045;-73
2022/09/15 02:48:07;;;;;;;20.23;11.88;;;;;;;11.75;100.00;100410.66;4988805;28;20595;-73
2022/09/15 02:50:32;;;;;;;22.55;11.95;;;;;;;11.75;100.00;100408.88;4970534;28;20037;-73
2022/09/15 02:52:57;;;;;;;18.63;11.88;;;;;;;11.76;100.00;100407.09;4986341;28;20031;-74
2022/09/15 02:55:27;;;;;;;20.60;12.00;;;;;;;11.76;100.00;100407.91;4988591;28;20038;-73
2022/09/15 02:57:57;;;;;;;23.48;12.15;;;;;;;11.77;100.00;100411.31;4986894;28;20038;-75
2022/09/15 03:00:23;;;;;;;25.52;14.20;;;;;;;11.77;100.00;100413.91;4987408;28;20038;-73
2022/09/15 03:02:52;;;;;;;27.70;13.95;;;;;;;11.82;100.00;100419.41;4988514;28;20042;-74
2022/09/15 03:05:23;;;;;;;25.67;14.07;;;;;;;11.84;100.00;100435.63;4977160;28;20035;-73
2022/09/15 03:07:50;;;;;;;24.88;13.50;;;;;;;11.84;100.00;100420.03;4982393;28;20041;-74
2022/09/15 03:10:16;;;;;;;26.42;13.90;;;;;;;11.91;100.00;100418.38;4986650;28;20042;-74
2022/09/15 03:12:43;;;;;;;25.30;14.10;;;;;;;11.92;100.00;100416.59;4983729;28;20054;-73
2022/09/15 03:15:11;;;;;;;31.15;15.07;;;;;;;11.99;100.00;100418.31;4982489;28;20042;-74
2022/09/15 03:17:40;;;;;;;29.10;14.75;;;;;;;11.92;100.00;100419.97;4968006;28;20046;-74
2022/09/15 03:20:07;;;;;;;26.65;14.23;;;;;;;11.96;100.00;100420.44;4984890;28;20065;-74
2022/09/15 03:22:33;;;;;;;26.73;14.48;;;;;;;12.04;100.00;100418.59;4986849;28;20034;-74
2022/09/15 03:24:59;;;;;;;33.83;14.77;;;;;;;12.00;100.00;100419.94;4972020;28;20039;-74
2022/09/15 03:27:25;;;;;;;32.05;14.82;;;;;;;12.06;100.00;100428.84;4992321;28;20053;-74
2022/09/15 03:29:50;;;;;;;34.53;15.18;;;;;;;12.11;100.00;100429.13;4984245;28;20499;-73
2022/09/15 03:32:15;;;;;;;30.65;14.20;;;;;;;12.05;100.00;100428.03;4983608;28;20045;-74
2022/09/15 03:34:41;;;;;;;27.73;15.00;;;;;;;12.10;100.00;100417.09;4983429;28;20042;-74
2022/09/15 03:37:06;;;;;;;33.22;14.60;;;;;;;12.10;100.00;100419.69;4980811;28;20035;-74
2022/09/15 03:39:33;;;;;;;29.67;14.95;;;;;;;12.15;100.00;100427.78;4982573;28;20380;-75
2022/09/15 03:41:58;;;;;;;27.42;14.38;;;;;;;12.12;100.00;100428.13;4963935;28;20114;-75
2022/09/15 03:44:24;;;;;;;29.33;14.75;;;;;;;12.09;100.00;100428.47;4986437;28;20636;-75
2022/09/15 03:46:50;;;;;;;31.10;14.90;;;;;;;12.17;100.00;100420.63;4986963;28;20126;-75
2022/09/15 03:49:15;;;;;;;30.00;14.75;;;;;;;12.14;100.00;100409.75;4971484;28;20097;-74
2022/09/15 03:51:41;;;;;;;26.92;13.43;;;;;;;12.11;100.00;100418.72;4987450;28;20068;-75
2022/09/15 03:54:07;;;;;;;25.25;14.15;;;;;;;12.10;100.00;100414.50;4990835;28;20030;-74
2022/09/15 03:56:33;;;;;;;22.75;13.38;;;;;;;12.11;100.00;100418.72;4989093;28;20388;-74
2022/09/15 03:59:00;;;;;;;25.35;13.85;;;;;;;12.12;100.00;100419.53;4988610;28;20042;-74
2022/09/15 04:01:26;;;;;;;28.88;14.13;;;;;;;12.16;100.00;100418.19;4991193;28;20706;-76
2022/09/15 04:03:52;;;;;;;29.42;14.85;;;;;;;12.15;100.00;100417.38;4989309;28;20038;-75
2022/09/15 04:06:19;;;;;;;22.58;13.52;;;;;;;12.16;100.00;100421.59;4981452;28;20034;-74
2022/09/15 04:08:45;;;;;;;31.40;14.50;;;;;;;12.20;100.00;100424.66;4969113;28;20117;-74
2022/09/15 04:11:12;;;;;;;28.73;13.70;;;;;;;12.24;100.00;100423.31;4989431;28;20144;-74
2022/09/15 04:13:40;;;;;;;26.73;13.80;;;;;;;12.24;100.00;100420.72;4990964;28;20030;-74
2022/09/15 04:16:09;;;;;;;38.53;16.17;;;;;;;12.26;100.00;100418.75;4990787;28;20038;-74
2022/09/15 04:18:35;;;;;;;27.88;14.35;;;;;;;12.27;100.00;100423.75;4996255;28;20031;-74
2022/09/15 04:21:04;;;;;;;30.58;15.20;;;;;;;12.31;100.00;100420.81;4988573;28;20042;-75
2022/09/15 04:23:30;;;;;;;30.20;15.48;;;;;;;12.30;100.00;100425.22;4988697;28;20054;-74
2022/09/15 04:25:57;;;;;;;31.58;15.70;;;;;;;12.28;100.00;100424.56;4989160;28;20395;-74
2022/09/15 04:28:24;;;;;;;27.27;14.15;;;;;;;12.26;100.00;100426.53;4972197;28;20045;-76
2022/09/15 04:30:50;;;;;;;26.63;13.52;;;;;;;12.24;100.00;100425.91;4987006;28;20041;-74
2022/09/15 04:33:16;;;;;;;24.15;14.07;;;;;;;12.24;100.00;100418.94;4989518;28;20034;-74
2022/09/15 04:35:41;;;;;;;28.73;14.85;;;;;;;12.25;100.00;100425.75;4986728;28;20380;-75
2022/09/15 04:38:07;;;;;;;29.40;14.23;;;;;;;12.26;100.00;100418.75;4996834;28;20095;-76
2022/09/15 04:40:32;;;;;;;28.65;14.18;;;;;;;12.26;100.00;100427.38;4998898;28;20030;-74
2022/09/15 04:42:58;;;;;;;30.60;14.23;;;;;;;12.23;100.00;100427.72;4988423;28;20042;-74
2022/09/15 04:45:23;;;;;;;27.52;15.00;;;;;;;12.26;100.00;100424.75;4984263;28;20031;-75
2022/09/15 04:47:50;;;;;;;26.92;14.10;;;;;;;12.23;100.00;100432.91;4989474;28;20038;-74
2022/09/15 04:50:16;;;;;;;27.27;13.57;;;;;;;12.20;100.00;100435.84;4987370;28;20049;-75
2022/09/15 04:52:41;;;;;;;26.92;13.73;;;;;;;12.19;100.00;100436.84;4984656;28;20058;-74
2022/09/15 04:55:07;;;;;;;28.38;13.20;;;;;;;12.19;100.00;100431.66;4988738;28;20030;-75
2022/09/15 04:57:33;;;;;;;27.50;14.38;;;;;;;12.19;100.00;100433.44;4967332;28;20037;-74
2022/09/15 04:59:58;;;;;;;27.27;15.00;;;;;;;12.18;100.00;100443.00;4987968;28;20042;-75
2022/09/15 05:02:25;;;;;;;25.80;12.73;;;;;;;12.16;100.00;100439.78;4987709;28;20034;-74
2022/09/15 05:04:50;;;;;;;27.85;14.45;;;;;;;12.18;100.00;100445.59;4982521;28;20412;-74
2022/09/15 05:07:17;;;;;;;29.10;15.00;;;;;;;12.16;100.00;100452.78;4985947;28;20050;-74
2022/09/15 05:09:42;;;;;;;28.33;15.18;;;;;;;12.14;100.00;100446.16;4988293;28;20042;-73
2022/09/15 05:12:08;;;;;;;30.33;15.73;;;;;;;12.19;100.00;100449.03;4989795;28;20037;-74
2022/09/15 05:14:33;;;;;;;29.38;15.88;;;;;;;12.17;100.00;100456.22;4972631;28;20027;-74
2022/09/15 05:16:58;;;;;;;32.42;15.48;;;;;;;12.18;100.00;100452.59;4988307;28;20391;-75
2022/09/15 05:19:24;;;;;;;32.63;16.55;;;;;;;12.20;100.00;100453.25;4986974;28;20571;-73
2022/09/15 05:21:49;;;;;;;30.40;14.48;;;;;;;12.17;100.00;100459.59;4972348;28;20030;-74
2022/09/15 05:24:15;;;;;;;31.65;15.90;;;;;;;12.17;100.00;100457.00;4985978;28;20399;-74
2022/09/15 05:26:40;;;;;;;32.83;15.77;;;;;;;12.20;100.00;100461.03;4984893;28;20527;-74
2022/09/15 05:29:06;;;;;;;29.05;15.20;;;;;;;12.23;100.00;100465.91;4987845;28;20046;-75
2022/09/15 05:31:32;;;;;;;29.98;16.02;;;;;;;12.23;100.00;100460.69;4984297;28;20041;-75
2022/09/15 05:34:03;;;;;;;31.25;16.15;;;;;;;12.27;100.00;100461.97;4967804;28;20041;-74
2022/09/15 05:36:29;;;;;;;31.30;16.17;;;;;;;12.29;100.00;100467.00;4966626;28;20765;-74
2022/09/15 05:38:55;;;;;;;32.55;16.35;;;;;;;12.30;100.00;100468.59;4988061;28;20116;-74
2022/09/15 05:41:22;;;;;;;32.03;16.33;;;;;;;12.32;100.00;100469.22;4986079;28;20028;-74
2022/09/15 05:43:48;;;;;;;30.33;16.83;;;;;;;12.35;100.00;100468.88;4987327;28;20038;-74
2022/09/15 05:46:15;;;;;;;33.80;16.23;;;;;;;12.38;100.00;100469.34;4987020;28;20121;-75
2022/09/15 05:48:41;;;;;;;31.90;16.85;;;;;;;12.42;100.00;100468.00;4984700;28;20034;-76
2022/09/15 05:51:06;;;;;;;33.65;16.35;;;;;;;12.47;100.00;100464.88;4987934;28;20078;-75
2022/09/15 05:53:34;;;;;;;31.25;16.33;;;;;;;12.53;100.00;100463.38;4987605;28;20034;-75
2022/09/15 05:56:02;;;;;;;38.15;17.88;;;;;;;12.56;100.00;100469.00;4985175;28;20046;-74
2022/09/15 05:58:28;;;;;;;35.60;15.73;;;;;;;12.59;100.00;100468.66;4984979;28;20034;-76
2022/09/15 06:00:54;;;;;;;35.05;18.17;;;;;;;12.61;100.00;100471.09;4987116;28;20456;-74
2022/09/15 06:03:22;;;;;;;28.60;16.30;;;;;;;12.60;100.00;100478.09;4983046;28;20077;-75
2022/09/15 06:05:48;;;;;;;31.33;17.30;;;;;;;12.62;100.00;100472.69;4967405;28;20109;-74
2022/09/15 06:08:14;;;;;;;37.08;18.58;;;;;;;12.65;100.00;100474.94;4994530;28;20042;-73
2022/09/15 06:10:40;;;;;;;30.23;16.63;;;;;;;12.64;100.00;100481.94;4970968;28;20384;-73
2022/09/15 06:13:06;;;;;;;30.30;16.75;;;;;;;12.71;100.00;100478.63;4985343;28;20058;-74
2022/09/15 06:15:31;;;;;;;32.03;16.15;;;;;;;12.71;100.00;100476.84;4987931;28;20045;-75
2022/09/15 06:17:57;;;;;;;36.83;17.95;;;;;;;12.74;100.00;100478.28;4989016;28;20053;-75
2022/09/15 06:20:22;;;;;;;31.90;17.17;;;;;;;12.73;100.00;100487.88;4982664;28;20050;-75
2022/09/15 06:22:48;;;;;;;31.65;16.15;;;;;;;12.71;100.00;100484.63;4970606;28;20045;-74
2022/09/15 06:25:14;;;;;;;28.13;14.10;;;;;;;12.72;100.00;100485.47;4984345;28;20035;-74
2022/09/15 06:27:40;;;;;;;29.25;16.55;;;;;;;12.77;100.00;100491.75;4987762;28;20034;-76
2022/09/15 06:30:07;;;;;;;36.55;17.23;;;;;;;12.81;100.00;100490.41;4986809;28;20041;-74
2022/09/15 06:32:33;;;;;;;37.83;17.90;;;;;;;12.85;100.00;100489.06;4983685;28;20046;-74
2022/09/15 06:34:59;;;;;;;26.35;15.63;;;;;;;12.89;100.00;100493.91;4970966;28;20117;-74
2022/09/15 06:37:24;;;;;;;32.15;16.48;;;;;;;12.98;100.00;100487.66;4984116;28;20026;-74
2022/09/15 06:39:50;;;;;;;38.03;17.98;;;;;;;12.99;100.00;100479.63;4982732;28;20511;-74
2022/09/15 06:42:15;;;;;;;33.60;16.48;;;;;;;13.03;100.00;100477.47;4986208;28;20042;-74
2022/09/15 06:44:41;;;;;;;30.00;16.90;;;;;;;13.08;100.00;100482.97;4986336;28;20026;-74
2022/09/15 06:47:06;;;;;;;28.85;15.95;;;;;;;13.05;100.00;100484.16;4985372;28;20144;-74
2022/09/15 06:49:32;;;;;;;29.77;16.30;;;;;;;13.08;100.00;100485.56;4986746;28;20045;-77
2022/09/15 06:51:57;;;;;;;33.78;16.42;;;;;;;13.13;100.00;100492.81;4987196;28;20077;-74
2022/09/15 06:54:23;;;;;;;32.35;16.85;;;;;;;13.08;100.00;100492.59;4986426;28;20414;-74
2022/09/15 06:56:49;;;;;;;30.10;15.20;;;;;;;13.07;100.00;100493.56;4992958;28;20407;-75
2022/09/15 06:59:15;;;;;;;31.27;17.65;;;;;;;13.12;100.00;100497.22;4987610;28;20407;-74
2022/09/15 07:01:41;;;;;;;31.23;16.40;;;;;;;13.09;100.00;100505.41;4988042;28;20565;-74
2022/09/15 07:04:08;;;;;;;32.92;17.77;;;;;;;13.12;100.00;100502.44;4978566;28;20117;-74
2022/09/15 07:06:36;;;;;;;31.23;16.95;;;;;;;13.19;100.00;100518.16;4976681;28;20026;-74
2022/09/15 07:09:03;;;;;;;31.55;16.85;;;;;;;13.24;100.00;100521.84;4985876;28;20042;-73
2022/09/15 07:11:29;;;;;;;38.20;18.20;;;;;;;13.29;100.00;100521.28;4987431;28;20885;-74
2022/09/15 07:13:54;;;;;;;26.02;15.82;;;;;;;13.34;100.00;100519.00;4983848;28;20049;-74
2022/09/15 07:16:21;;;;;;;36.60;17.85;;;;;;;13.39;100.00;100521.88;4983293;28;20033;-74
2022/09/15 07:18:47;;;;;;;29.50;15.77;;;;;;;13.36;100.00;100518.81;4986253;28;20042;-74
2022/09/15 07:21:21;;;;;;;26.67;16.73;;;;;;;13.45;100.00;100533.34;4967613;28;20042;-75
2022/09/15 07:23:47;;;;;;;31.08;17.00;;;;;;;13.55;100.00;100530.47;4987795;28;20046;-75
2022/09/15 07:26:14;;;;;;;30.83;17.52;;;;;;;13.65;100.00;100538.78;4988470;28;20093;-74
2022/09/15 07:28:42;;;;;;;29.13;16.77;;;;;;;13.71;100.00;100542.47;4989428;28;20779;-73
2022/09/15 07:31:09;;;;;;;28.98;16.55;;;;;;;13.77;100.00;100539.94;4987477;28;20042;-73
2022/09/15 07:33:35;;;;;;;29.35;17.58;;;;;;;13.92;100.00;100539.09;4989786;28;20030;-73
2022/09/15 07:36:01;;;;;;;29.05;17.05;;;;;;;13.95;100.00;100539.53;4985648;28;20030;-74
2022/09/15 07:38:28;;;;;;;30.52;16.73;;;;;;;13.99;100.00;100546.03;4988018;28;20041;-73
2022/09/15 07:40:53;;;;;;;30.45;16.52;;;;;;;14.00;100.00;100549.41;4990783;28;20027;-74
2022/09/15 07:43:19;;;;;;;24.73;15.80;;;;;;;14.11;100.00;100551.53;4988197;28;20479;-74
2022/09/15 07:45:45;;;;;;;36.08;16.95;;;;;;;14.20;100.00;100547.81;4987015;28;20105;-76
2022/09/15 07:48:10;;;;;;;28.23;15.82;;;;;;;14.39;100.00;100554.22;4988981;28;20061;-74
2022/09/15 07:50:36;;;;;;;29.85;18.23;;;;;;;14.59;100.00;100566.66;4973086;28;20110;-74
2022/09/15 07:53:02;;;;;;;28.05;16.65;;;;;;;14.84;100.00;100563.63;4989398;28;20042;-74
2022/09/15 07:55:29;;;;;;;33.55;14.60;;;;;;;15.06;100.00;100556.56;4988730;28;20531;-74
2022/09/15 07:57:59;;;;;;;30.92;16.52;;;;;;;15.38;100.00;100548.09;4976332;28;20042;-74
2022/09/15 08:00:25;;;;;;;30.42;15.38;;;;;;;15.95;100.00;100556.63;4969357;28;20092;-75
2022/09/15 08:02:51;;;;;;;21.92;14.40;;;;;;;15.88;100.00;100554.97;4991104;28;20030;-76
2022/09/15 08:05:16;;;;;;;25.15;13.98;;;;;;;15.66;100.00;100549.84;4989083;28;20130;-74
2022/09/15 08:07:42;;;;;;;24.05;13.65;;;;;;;15.51;100.00;100557.03;4989140;28;20652;-74
2022/09/15 08:10:08;;;;;;;22.25;13.60;;;;;;;15.30;100.00;100560.53;4989127;28;20042;-75
2022/09/15 08:12:34;;;;;;;24.17;13.98;;;;;;;15.17;100.00;100566.47;4988741;28;20026;-74
2022/09/15 08:15:00;;;;;;;20.17;13.15;;;;;;;15.01;100.00;100570.19;4989615;28;20622;-75
2022/09/15 08:17:25;;;;;;;25.75;14.30;;;;;;;14.98;100.00;100570.56;4988704;28;20034;-75
2022/09/15 08:19:50;;;;;;;28.60;14.10;;;;;;;15.02;100.00;100573.63;4971182;28;20037;-75
2022/09/15 08:22:16;;;;;;;21.67;13.23;;;;;;;15.11;100.00;100575.88;4984810;28;20031;-75
2022/09/15 08:24:42;;;;;;;22.20;13.20;;;;;;;15.15;100.00;100578.94;4989175;28;20495;-76
2022/09/15 08:27:07;;;;;;;21.55;12.85;;;;;;;15.42;100.00;100579.88;4990322;28;20034;-75
2022/09/15 08:29:33;;;;;;;23.30;12.90;;;;;;;15.65;100.00;100576.16;4989488;28;20026;-76
2022/09/15 08:31:59;;;;;;;30.40;14.43;;;;;;;15.87;100.00;100579.50;4983871;28;20622;-75
2022/09/15 08:34:25;;;;;;;27.27;12.77;;;;;;;15.92;100.00;100584.97;4985383;28;20034;-75
2022/09/15 08:36:50;;;;;;;21.23;12.90;;;;;;;15.96;100.00;100589.59;4986009;28;20033;-75
2022/09/15 08:39:16;;;;;;;15.77;11.43;;;;;;;15.91;100.00;100593.78;4981069;28;20031;-75
2022/09/15 08:41:51;;;;;;;15.15;10.00;;;;;;;15.90;100.00;100595.59;4987428;28;20046;-75
2022/09/15 08:45:03;;;;;;;22.10;12.20;;;;;;;15.97;99.12;100590.38;4989053;28;20050;-76
2022/09/15 08:47:33;;;;;;;22.25;11.75;;;;;;;16.13;99.60;100599.69;4984591;28;20047;-75
2022/09/15 08:50:10;;;;;;;24.15;11.32;;;;;;;16.28;98.63;100604.78;4984214;28;20271;-75
2022/09/15 08:52:57;;;;;;;20.42;11.38;;;;;;;16.34;97.81;100604.75;4988945;28;20039;-76
2022/09/15 08:55:25;;;;;;;23.85;10.73;;;;;;;16.39;95.76;100601.56;4984517;28;20045;-76
2022/09/15 08:57:54;;;;;;;22.98;11.68;;;;;;;16.48;95.37;100602.16;4975281;28;20397;-75
2022/09/15 09:00:19;;;;;;;18.45;9.85;;;;;;;16.51;95.44;100607.81;4988730;28;20114;-75
2022/09/15 09:02:58;;;;;;;16.25;10.55;;;;;;;16.52;95.17;100614.66;4991489;28;20112;-75
2022/09/15 09:05:30;;;;;;;20.10;11.38;;;;;;;16.54;96.11;100612.66;4989439;28;20034;-75
2022/09/15 09:08:11;;;;;;;16.38;10.10;;;;;;;16.67;96.55;100613.66;4986182;28;20092;-76
2022/09/15 09:11:03;;;;;;;15.32;8.77;;;;;;;16.80;94.18;100608.47;5003974;28;20113;-75
2022/09/15 09:13:44;;;;;;;16.80;8.13;;;;;;;16.89;92.58;100601.22;4986701;28;20545;-76
2022/09/15 09:16:28;;;;;;;16.50;8.52;;;;;;;16.93;91.06;100599.81;4970185;28;20446;-77
2022/09/15 09:19:22;;;;;;;13.13;8.48;;;;;;;17.02;91.40;100598.59;4970535;28;20042;-77
2022/09/15 09:22:10;;;;;;;16.13;6.72;;;;;;;16.85;89.88;100606.06;4984370;28;20038;-77
2022/09/15 09:24:42;;;;;;;9.52;6.82;;;;;;;16.85;88.96;100613.91;4983509;28;20061;-76
2022/09/15 09:27:17;;;;;;;12.90;7.00;;;;;;;16.93;89.13;100611.09;4988724;28;20126;-77
2022/09/15 09:29:48;;;;;;;16.75;6.60;;;;;;;16.85;89.62;100610.50;4960202;28;20074;-76
2022/09/15 09:32:23;;;;;;;13.38;7.07;;;;;;;16.85;89.56;100616.53;4987230;28;20440;-76
2022/09/15 09:34:59;;;;;;;11.20;6.38;;;;;;;16.87;90.21;100621.56;4988068;28;20045;-76
2022/09/15 09:37:25;;;;;;;17.13;7.95;;;;;;;16.82;90.42;100616.09;4973947;28;20431;-76
2022/09/15 09:39:51;;;;;;;11.50;6.00;;;;;;;16.81;91.80;100620.53;4984143;28;20038;-77
2022/09/15 09:42:17;;;;;;;11.45;6.55;;;;;;;16.99;91.40;100613.91;4985767;28;20061;-76
2022/09/15 09:44:44;;;;;;;12.45;7.53;;;;;;;16.95;90.57;100615.31;4987062;28;20044;-77
2022/09/15 09:47:11;;;;;;;12.38;7.00;;;;;;;17.00;90.40;100611.09;4986121;28;20045;-76
2022/09/15 09:49:41;;;;;;;14.90;7.85;;;;;;;17.07;90.21;100617.13;4980303;28;20111;-76
2022/09/15 09:52:07;;;;;;;12.82;7.03;;;;;;;17.08;90.30;100618.75;4981045;28;20450;-76
2022/09/15 09:54:34;;;;;;;13.18;6.25;;;;;;;17.15;90.02;100617.94;4982977;28;20026;-77
2022/09/15 09:57:12;;;;;;;15.77;6.18;;;;;;;17.19;88.38;100606.81;4984995;28;20047;-76
2022/09/15 09:59:41;;;;;;;10.77;5.85;;;;;;;17.26;85.72;100612.88;4975804;28;20030;-76
2022/09/15 10:02:10;;;;;;;13.38;5.32;;;;;;;17.38;86.09;100607.78;4972103;28;20256;-77
2022/09/15 10:04:36;;;;;;;10.88;4.90;;;;;;;17.39;86.02;100608.63;4985219;28;20125;-74
2022/09/15 10:07:03;;;;;;;11.77;5.00;;;;;;;17.34;85.66;100616.28;4988615;28;20026;-76
2022/09/15 10:09:29;;;;;;;9.40;4.55;;;;;;;17.44;85.26;100612.22;4986761;28;20069;-76
2022/09/15 10:11:57;;;;;;;9.80;4.65;;;;;;;17.53;84.95;100612.78;4983927;28;20054;-76
2022/09/15 10:14:29;;;;;;;9.20;3.97;;;;;;;17.64;84.06;100614.78;4988467;28;20117;-76
2022/09/15 10:16:57;;;;;;;11.02;3.15;;;;;;;17.74;81.83;100611.72;4988964;28;20038;-77
2022/09/15 10:19:23;;;;;;;8.63;2.63;;;;;;;17.79;80.46;100609.28;4986556;28;20041;-76
2022/09/15 10:21:49;;;;;;;11.18;3.10;;;;;;;17.77;81.41;100610.50;4984519;28;20018;-76
2022/09/15 10:24:26;;;;;;;7.35;3.30;;;;;;;17.67;80.62;100609.13;5001945;28;20037;-76
2022/09/15 10:27:16;;;;;;;8.52;3.50;;;;;;;17.69;80.38;100606.31;4971807;28;20046;-76
2022/09/15 10:29:41;;;;;;;7.38;3.15;;;;;;;17.56;79.86;100601.13;4979855;28;20735;-76
2022/09/15 10:32:22;;;;;;;13.10;2.75;;;;;;;17.64;80.25;100603.50;4990060;28;20050;-75
2022/09/15 10:34:50;;;;;;;13.52;3.20;;;;;;;17.64;79.73;100606.13;4981300;28;20093;-75
2022/09/15 10:37:27;;;;;;;10.35;2.70;;;;;;;17.52;79.85;100598.91;4996621;28;20038;-75
2022/09/15 10:39:59;;;;;;;9.05;1.92;;;;;;;17.63;78.16;100601.88;4986383;28;20424;-76
2022/09/15 10:42:52;;;;;;;3.72;1.50;;;;;;;17.67;77.74;100606.50;4984465;28;20655;-76
2022/09/15 10:45:53;;;;;;;4.07;1.80;;;;;;;17.68;77.00;100608.09;4985720;28;20042;-74
2022/09/15 10:48:40;;;;;;;5.43;2.00;;;;;;;17.79;76.58;100601.41;4982090;28;20128;-79
2022/09/15 10:51:33;;;;;;;9.07;1.95;;;;;;;17.98;76.99;100599.75;4986947;28;20049;-75
2022/09/15 10:54:05;;;;;;;;;;;;;;;17.97;74.84;100611.25;4969436;28;20465;-76
2022/09/15 10:56:40;;;;;;;8.48;1.48;;;;;;;17.88;73.58;100602.81;4987672;28;19914;-75
2022/09/15 10:59:05;;;;;;;5.40;1.63;;;;;;;17.92;73.47;100605.84;4990069;28;20053;-76
2022/09/15 11:01:53;;;;;;;6.57;1.90;;;;;;;17.81;72.68;100606.47;4985469;28;20626;-74
2022/09/15 11:04:42;;;;;;;8.30;1.58;;;;;;;17.89;72.78;100603.63;4991605;28;20030;-74
2022/09/15 11:07:26;;;;;;;4.45;1.35;;;;;;;18.06;75.17;100604.75;4982375;28;20121;-74
2022/09/15 11:10:03;;;;;;;10.35;2.40;;;;;;;18.05;76.27;100611.00;4993173;28;20041;-76
2022/09/15 11:12:28;;;;;;;3.20;1.40;;;;;;;17.96;75.69;100620.13;4983572;28;20058;-75
2022/09/15 11:15:21;;;;;;;2.67;1.50;;;;;;;17.93;75.82;100615.28;4992911;28;20113;-78
2022/09/15 11:18:06;;;;;;;6.55;1.60;;;;;;;17.86;72.64;100609.28;4989794;28;20100;-75
2022/09/15 11:20:47;;;;;;;8.82;2.20;;;;;;;17.75;73.88;100620.41;4986647;28;20034;-75